Time;durP1;ratioP1;P1;durP2;ratioP2;P2;SDS_P1;SDS_P2;PMS_P1;PMS_P2;Temp;Humidity;BMP_temperature;BMP_pressure;BME280_temperature;BME280_humidity;BME280_pressure;Samples;Min_cycle;Max_cycle;Signal;HPM_P1;HPM_P2
2023/06/05 00:00:58;;;;;;;1999.90;999.90;;;13.00;95.00;;;;;;6326919;22;20011;-82
2023/06/05 00:03:26;;;;;;;1999.90;999.90;;;12.90;95.10;;;;;;6296235;22;20447;-82
2023/06/05 00:05:52;;;;;;;1999.90;999.90;;;12.90;94.80;;;;;;6341196;22;20012;-82
2023/06/05 00:08:18;;;;;;;1999.90;999.90;;;12.80;95.10;;;;;;6289473;22;20018;-81
2023/06/05 00:10:43;;;;;;;1999.90;999.90;;;12.80;95.20;;;;;;6316687;22;20088;-82
2023/06/05 00:13:09;;;;;;;1999.90;999.90;;;12.70;95.40;;;;;;6289362;22;20027;-82
2023/06/05 00:15:35;;;;;;;1999.90;999.90;;;12.70;95.30;;;;;;6289998;22;20012;-82
2023/06/05 00:18:03;;;;;;;1999.90;999.90;;;12.70;95.40;;;;;;6289946;22;20471;-82
2023/06/05 00:20:29;;;;;;;1999.90;999.90;;;12.70;96.00;;;;;;6290276;22;20483;-81
2023/06/05 00:22:55;;;;;;;1999.90;999.90;;;12.70;95.60;;;;;;6288907;22;20138;-82
2023/06/05 00:25:20;;;;;;;1999.90;999.90;;;12.50;95.30;;;;;;6341166;22;20008;-82
2023/06/05 00:27:46;;;;;;;1999.90;999.90;;;12.60;95.40;;;;;;6289116;22;20007;-81
2023/06/05 00:30:13;;;;;;;1999.90;999.90;;;12.50;95.70;;;;;;6289557;22;20008;-81
2023/06/05 00:32:39;;;;;;;1999.90;999.90;;;12.60;95.80;;;;;;6289199;22;20087;-81
2023/06/05 00:35:06;;;;;;;1999.90;999.90;;;12.50;95.90;;;;;;6318332;22;20027;-81
2023/06/05 00:37:33;;;;;;;1999.90;999.90;;;12.50;96.20;;;;;;6290490;22;20012;-82
2023/06/05 00:39:59;;;;;;;1999.90;999.90;;;12.60;96.70;;;;;;6319943;22;20054;-82
2023/06/05 00:42:26;;;;;;;1999.90;999.90;;;12.50;96.50;;;;;;6318373;22;20011;-82
2023/06/05 00:44:52;;;;;;;1999.90;999.90;;;12.50;96.70;;;;;;6290189;22;20011;-82
2023/06/05 00:47:18;;;;;;;1999.90;999.90;;;12.50;96.70;;;;;;6319054;22;20077;-81
2023/06/05 00:49:43;;;;;;;1999.90;999.90;;;12.40;96.10;;;;;;6319942;22;20000;-82
2023/06/05 00:52:09;;;;;;;1999.90;999.90;;;12.40;96.20;;;;;;6291464;22;20011;-82
2023/06/05 00:54:35;;;;;;;1999.90;999.90;;;12.50;96.60;;;;;;6320095;22;20007;-83
2023/06/05 00:57:01;;;;;;;1999.90;999.90;;;12.40;96.90;;;;;;6290778;22;20015;-82
2023/06/05 00:59:29;;;;;;;1999.90;999.90;;;12.30;96.50;;;;;;6288570;22;20008;-82
2023/06/05 01:01:55;;;;;;;1999.90;999.90;;;12.30;96.70;;;;;;6315979;22;20034;-82
2023/06/05 01:04:23;;;;;;;1999.90;999.90;;;12.30;97.00;;;;;;6316368;22;20015;-82
2023/06/05 01:06:50;;;;;;;1999.90;999.90;;;12.20;97.20;;;;;;6287676;22;20448;-82
2023/06/05 01:09:16;;;;;;;1999.90;999.90;;;12.20;97.00;;;;;;6288182;22;20015;-83
2023/06/05 01:12:17;;;;;;;1999.90;999.90;;;12.20;97.20;;;;;;6340019;22;20063;-82
2023/06/05 01:14:47;;;;;;;1999.90;999.90;;;12.20;96.90;;;;;;6316736;22;20090;-82
2023/06/05 01:17:13;;;;;;;1999.90;999.90;;;12.20;97.10;;;;;;6315745;22;20018;-82
2023/06/05 01:19:40;;;;;;;1999.90;999.90;;;12.20;97.40;;;;;;6315600;22;20331;-83
2023/06/05 01:22:05;;;;;;;1999.90;999.90;;;12.30;97.70;;;;;;6315015;22;20513;-82
2023/06/05 01:24:32;;;;;;;1999.90;999.90;;;12.30;97.70;;;;;;6314592;22;20016;-82
2023/06/05 01:27:00;;;;;;;1999.90;999.90;;;12.30;97.90;;;;;;6315609;22;20000;-83
2023/06/05 01:29:48;;;;;;;1999.90;999.90;;;12.20;97.90;;;;;;6287790;22;20516;-83
2023/06/05 01:32:36;;;;;;;1999.90;999.90;;;12.10;98.20;;;;;;6339908;22;20027;-83
2023/06/05 01:35:08;;;;;;;1999.90;999.90;;;12.10;97.80;;;;;;6315990;22;20034;-82
2023/06/05 01:37:40;;;;;;;1999.90;999.90;;;12.00;97.80;;;;;;6316384;22;20000;-83
2023/06/05 01:40:11;;;;;;;1999.90;999.90;;;11.90;98.20;;;;;;6288758;22;20008;-82
2023/06/05 01:42:39;;;;;;;1999.90;999.90;;;11.90;98.20;;;;;;6315449;22;20131;-82
2023/06/05 01:45:07;;;;;;;1999.90;999.90;;;11.90;98.20;;;;;;6316327;22;20008;-83
2023/06/05 01:47:34;;;;;;;1999.90;999.90;;;11.90;98.30;;;;;;6341527;22;20347;-82
2023/06/05 01:50:00;;;;;;;1999.90;999.90;;;11.80;98.50;;;;;;6316256;22;20002;-82
2023/06/05 01:52:25;;;;;;;1999.90;999.90;;;11.80;98.20;;;;;;6288130;22;20455;-82
2023/06/05 01:54:52;;;;;;;1999.90;999.90;;;11.80;98.60;;;;;;6315967;22;20004;-83
2023/06/05 01:57:18;;;;;;;1999.90;999.90;;;11.80;98.70;;;;;;6317148;22;20012;-82
2023/06/05 01:59:45;;;;;;;1999.90;999.90;;;11.80;98.70;;;;;;6317016;22;20011;-82
2023/06/05 02:02:13;;;;;;;1999.90;999.90;;;11.80;98.40;;;;;;6288654;22;20062;-82
2023/06/05 02:04:38;;;;;;;1999.90;999.90;;;11.70;98.30;;;;;;6291026;22;20018;-82
2023/06/05 02:07:05;;;;;;;1999.90;999.90;;;11.70;98.60;;;;;;6289500;22;20011;-82
2023/06/05 02:09:33;;;;;;;1999.90;999.90;;;11.60;98.50;;;;;;6287541;22;20419;-82
2023/06/05 02:12:03;;;;;;;1999.90;999.90;;;11.60;98.50;;;;;;6338986;22;20015;-82
2023/06/05 02:14:29;;;;;;;1999.90;999.90;;;11.60;98.50;;;;;;6315355;22;20455;-81
2023/06/05 02:16:56;;;;;;;1999.90;999.90;;;11.50;99.00;;;;;;6315002;22;20454;-82
2023/06/05 02:19:22;;;;;;;1999.90;999.90;;;11.70;98.50;;;;;;6315195;22;20325;-84
2023/06/05 02:21:47;;;;;;;1999.90;999.90;;;11.60;98.40;;;;;;6293866;22;20054;-83
2023/06/05 02:24:13;;;;;;;1999.90;999.90;;;11.70;99.40;;;;;;6315154;22;20020;-82
2023/06/05 02:26:38;;;;;;;1999.90;999.90;;;11.60;98.90;;;;;;6289204;22;20043;-84
2023/06/05 02:29:05;;;;;;;1999.90;999.90;;;11.60;98.90;;;;;;6287187;22;20015;-83
2023/06/05 02:31:30;;;;;;;1999.90;999.90;;;11.50;98.90;;;;;;6314571;22;20321;-84
2023/06/05 02:33:56;;;;;;;1999.90;999.90;;;11.50;99.00;;;;;;6314493;22;20126;-84
2023/06/05 02:36:24;;;;;;;1999.90;999.90;;;11.40;99.10;;;;;;6339615;22;20432;-84
2023/06/05 02:38:50;;;;;;;1999.90;999.90;;;11.40;99.10;;;;;;6287046;22;20086;-83
2023/06/05 02:41:17;;;;;;;1999.90;999.90;;;11.40;99.40;;;;;;6314576;22;20444;-84
2023/06/05 02:43:44;;;;;;;1999.90;999.90;;;11.40;99.30;;;;;;6317239;22;20069;-84
2023/06/05 02:46:10;;;;;;;1999.90;999.90;;;11.40;99.60;;;;;;6315665;22;19999;-81
2023/06/05 02:48:36;;;;;;;1999.90;999.90;;;11.40;99.10;;;;;;6314564;22;20004;-81
2023/06/05 02:51:03;;;;;;;1999.90;999.90;;;11.30;99.10;;;;;;6286814;22;20022;-81
2023/06/05 02:53:28;;;;;;;1999.90;999.90;;;11.40;99.60;;;;;;6286649;22;20069;-81
2023/06/05 02:55:55;;;;;;;1999.90;999.90;;;11.30;99.90;;;;;;6314657;22;20340;-81
2023/06/05 02:58:21;;;;;;;1999.90;999.90;;;11.30;99.70;;;;;;6339492;22;20061;-82
2023/06/05 03:00:47;;;;;;;1999.90;999.90;;;11.20;99.90;;;;;;6315155;22;20004;-81
2023/06/05 03:03:16;;;;;;;1999.90;999.90;;;11.20;99.90;;;;;;6314268;22;20363;-82
2023/06/05 03:05:44;;;;;;;1999.90;999.90;;;11.20;99.90;;;;;;6314937;22;20007;-80
2023/06/05 03:08:10;;;;;;;1999.90;999.90;;;11.10;99.90;;;;;;6315338;22;20016;-81
2023/06/05 03:10:35;;;;;;;1999.90;999.90;;;11.10;99.90;;;;;;6288283;22;20014;-82
2023/06/05 03:13:01;;;;;;;1999.90;999.90;;;11.10;99.90;;;;;;6288756;22;20011;-82
2023/06/05 03:15:27;;;;;;;1999.90;999.90;;;11.10;99.90;;;;;;6340736;22;20329;-81
2023/06/05 03:17:53;;;;;;;1999.90;999.90;;;11.20;99.90;;;;;;6288442;22;20440;-81
2023/06/05 03:20:19;;;;;;;1999.90;999.90;;;11.10;99.90;;;;;;6288647;22;19999;-81
2023/06/05 03:22:45;;;;;;;1999.90;999.90;;;11.10;99.90;;;;;;6288570;22;20015;-81
2023/06/05 03:25:10;;;;;;;1999.90;999.90;;;11.20;99.90;;;;;;6289989;22;20010;-81
2023/06/05 03:27:37;;;;;;;1999.90;999.90;;;11.10;99.90;;;;;;6287759;22;20444;-83
2023/06/05 03:30:03;;;;;;;1999.90;999.90;;;11.10;99.90;;;;;;6287141;22;20031;-83
2023/06/05 03:32:29;;;;;;;1999.90;999.90;;;11.10;99.90;;;;;;6315159;22;20439;-83
2023/06/05 03:34:55;;;;;;;1999.90;999.90;;;11.10;99.90;;;;;;6314879;22;20000;-84
2023/06/05 03:37:21;;;;;;;1999.90;999.90;;;11.10;99.90;;;;;;6314982;22;20080;-84
2023/06/05 03:39:47;;;;;;;1999.90;999.90;;;11.10;99.90;;;;;;6286956;22;20053;-84
2023/06/05 03:42:12;;;;;;;1999.90;999.90;;;11.10;99.90;;;;;;6286782;22;20445;-83
2023/06/05 03:44:38;;;;;;;1999.90;999.90;;;11.20;99.90;;;;;;6287250;22;20703;-84
2023/06/05 03:47:05;;;;;;;1999.90;999.90;;;11.20;99.90;;;;;;6288391;22;19999;-82
2023/06/05 03:49:31;;;;;;;1999.90;999.90;;;11.20;99.90;;;;;;6289051;22;20415;-81
2023/06/05 03:52:00;;;;;;;1999.90;999.90;;;11.20;99.90;;;;;;6316140;22;20016;-81
2023/06/05 03:54:27;;;;;;;1999.90;999.90;;;11.20;99.90;;;;;;6317381;22;20206;-81
2023/06/05 03:56:55;;;;;;;1999.90;999.90;;;11.20;99.90;;;;;;6316482;22;20011;-81
2023/06/05 03:59:22;;;;;;;1999.90;999.90;;;11.30;99.50;;;;;;6340792;22;20443;-81
2023/06/05 04:01:48;;;;;;;1999.90;999.90;;;11.30;99.90;;;;;;6316446;22;20014;-80
2023/06/05 04:04:14;;;;;;;1999.90;999.90;;;11.30;99.80;;;;;;6317463;22;20636;-81
2023/06/05 04:06:43;;;;;;;1999.90;999.90;;;11.30;99.90;;;;;;6290029;22;20007;-81
2023/06/05 04:09:12;;;;;;;1999.90;999.90;;;11.30;99.50;;;;;;6319681;22;20014;-81
2023/06/05 04:11:42;;;;;;;1999.90;999.90;;;11.30;99.70;;;;;;6286869;22;20419;-81
2023/06/05 04:14:09;;;;;;;1999.90;999.90;;;11.30;99.50;;;;;;6313928;22;20360;-81
2023/06/05 04:16:38;;;;;;;1999.90;999.90;;;11.40;99.90;;;;;;6314160;22;20011;-81
2023/06/05 04:19:06;;;;;;;1999.90;999.90;;;11.30;99.50;;;;;;6338647;22;20011;-81
2023/06/05 04:21:33;;;;;;;1999.90;999.90;;;11.40;99.40;;;;;;6286397;22;20008;-81
2023/06/05 04:23:58;;;;;;;1999.90;999.90;;;11.40;99.60;;;;;;6313767;22;20007;-81
2023/06/05 04:26:26;;;;;;;1999.90;999.90;;;11.30;99.40;;;;;;6287715;22;20000;-81
2023/06/05 04:28:51;;;;;;;1999.90;999.90;;;11.40;99.20;;;;;;6315481;22;20010;-81
2023/06/05 04:31:17;;;;;;;1999.90;999.90;;;11.40;99.60;;;;;;6287463;22;20012;-81
2023/06/05 04:33:43;;;;;;;1999.90;999.90;;;11.40;99.60;;;;;;6288119;22;20014;-81
2023/06/05 04:36:08;;;;;;;1999.90;999.90;;;11.40;99.70;;;;;;6340021;22;20014;-81
2023/06/05 04:38:34;;;;;;;1999.90;999.90;;;11.40;99.70;;;;;;6287297;22;20003;-81
2023/06/05 04:41:00;;;;;;;1999.90;999.90;;;11.40;99.60;;;;;;6314119;22;20004;-81
2023/06/05 04:43:26;;;;;;;1999.90;999.90;;;11.50;99.80;;;;;;6315655;22;20007;-81
2023/06/05 04:45:51;;;;;;;1999.90;999.90;;;11.50;99.60;;;;;;6315947;22;20081;-81
2023/06/05 04:48:17;;;;;;;1999.90;999.90;;;11.50;99.00;;;;;;6317293;22;20004;-81
2023/06/05 04:50:43;;;;;;;1999.90;999.90;;;11.60;99.10;;;;;;6317230;22;20652;-82
2023/06/05 04:53:08;;;;;;;1999.90;999.90;;;11.70;99.10;;;;;;6317359;22;20008;-81
2023/06/05 04:55:34;;;;;;;1999.90;999.90;;;11.80;98.90;;;;;;6290124;22;20015;-80
2023/06/05 04:58:00;;;;;;;1999.90;999.90;;;11.80;98.90;;;;;;6317978;22;20003;-81
2023/06/05 05:00:26;;;;;;;1999.90;999.90;;;11.90;98.40;;;;;;6318036;22;20695;-81
2023/06/05 05:02:53;;;;;;;1999.90;999.90;;;12.00;98.40;;;;;;6317105;22;20018;-81
2023/06/05 05:05:19;;;;;;;1999.90;999.90;;;12.10;98.70;;;;;;6342704;22;20132;-81
2023/06/05 05:07:45;;;;;;;1999.90;999.90;;;12.20;97.90;;;;;;6290198;22;20058;-81
2023/06/05 05:10:11;;;;;;;1999.90;999.90;;;12.40;97.60;;;;;;6290934;22;20094;-80
2023/06/05 05:12:38;;;;;;;1999.90;999.90;;;12.50;97.10;;;;;;6318177;22;20075;-81
2023/06/05 05:15:04;;;;;;;1999.90;999.90;;;12.70;97.20;;;;;;6321020;22;20004;-81
2023/06/05 05:17:31;;;;;;;1999.90;999.90;;;12.70;96.30;;;;;;6287974;22;20061;-82
2023/06/05 05:19:57;;;;;;;1999.90;999.90;;;12.90;94.50;;;;;;6289656;22;20471;-81
2023/06/05 05:22:22;;;;;;;1999.90;999.90;;;13.10;94.40;;;;;;6341507;22;20011;-80
2023/06/05 05:24:48;;;;;;;1999.90;999.90;;;13.20;93.30;;;;;;6289141;22;20007;-81
2023/06/05 05:27:13;;;;;;;1999.90;999.90;;;13.40;93.00;;;;;;6317123;22;20004;-80
2023/06/05 05:29:39;;;;;;;1999.90;999.90;;;13.50;92.20;;;;;;6317024;22;20086;-82
2023/06/05 05:32:05;;;;;;;1999.90;999.90;;;13.60;91.90;;;;;;6317056;22;20004;-81
2023/06/05 05:34:31;;;;;;;1999.90;999.90;;;13.80;91.90;;;;;;6289120;22;20010;-82
2023/06/05 05:36:57;;;;;;;1999.90;999.90;;;13.90;90.80;;;;;;6316926;22;20066;-79
2023/06/05 05:39:22;;;;;;;1999.90;999.90;;;14.00;90.70;;;;;;6289586;22;21090;-79
2023/06/05 05:41:48;;;;;;;1999.90;999.90;;;14.10;90.70;;;;;;6316356;22;20327;-79
2023/06/05 05:44:13;;;;;;;1999.90;999.90;;;14.20;90.30;;;;;;6342028;22;20018;-80
2023/06/05 05:46:39;;;;;;;1999.90;999.90;;;14.30;90.00;;;;;;6318672;22;20404;-80
2023/06/05 05:49:05;;;;;;;1999.90;999.90;;;14.40;89.70;;;;;;6318339;22;20007;-81
2023/06/05 05:51:30;;;;;;;1999.90;999.90;;;14.50;89.30;;;;;;6318168;22;20057;-80
2023/06/05 05:53:56;;;;;;;1999.90;999.90;;;14.60;90.20;;;;;;6318749;22;20008;-80
2023/06/05 05:56:21;;;;;;;1999.90;999.90;;;14.70;89.40;;;;;;6323159;22;19999;-80
2023/06/05 05:58:47;;;;;;;1999.90;999.90;;;14.80;88.90;;;;;;6319256;22;20014;-80
2023/06/05 06:01:13;;;;;;;1999.90;999.90;;;14.90;88.70;;;;;;6342446;22;20332;-80
2023/06/05 06:03:38;;;;;;;1999.90;999.90;;;14.90;87.70;;;;;;6342410;22;20016;-80
2023/06/05 06:06:07;;;;;;;1999.90;999.90;;;14.90;87.50;;;;;;6319172;22;20726;-79
2023/06/05 06:08:34;;;;;;;1999.90;999.90;;;15.00;86.90;;;;;;6319047;22;20391;-80
2023/06/05 06:11:00;;;;;;;1999.90;999.90;;;15.10;87.50;;;;;;6294390;22;20707;-79
2023/06/05 06:13:26;;;;;;;1999.90;999.90;;;15.20;87.70;;;;;;6313602;22;20012;-81
2023/06/05 06:15:51;;;;;;;1999.90;999.90;;;15.30;87.70;;;;;;6314561;22;20000;-78
2023/06/05 06:18:17;;;;;;;1999.90;999.90;;;15.30;88.10;;;;;;6315723;22;20652;-75
2023/06/05 06:20:43;;;;;;;1999.90;999.90;;;15.40;87.00;;;;;;6315383;22;20007;-77
2023/06/05 06:23:09;;;;;;;1999.90;999.90;;;15.50;87.20;;;;;;6313578;22;20008;-76
2023/06/05 06:25:34;;;;;;;1999.90;999.90;;;15.50;86.10;;;;;;6314430;22;20004;-79
2023/06/05 06:28:01;;;;;;;1999.90;999.90;;;15.70;86.40;;;;;;6287334;22;20018;-80
2023/06/05 06:30:27;;;;;;;1999.90;999.90;;;15.70;85.00;;;;;;6314665;22;20004;-76
2023/06/05 06:32:56;;;;;;;1999.90;999.90;;;15.80;85.20;;;;;;6313823;22;20413;-76
2023/06/05 06:35:22;;;;;;;1999.90;999.90;;;15.90;84.90;;;;;;6315344;22;20442;-78
2023/06/05 06:37:48;;;;;;;1999.90;999.90;;;16.00;84.90;;;;;;6313820;22;20047;-76
2023/06/05 06:40:14;;;;;;;1999.90;999.90;;;16.10;84.60;;;;;;6314266;22;20523;-76
2023/06/05 06:42:39;;;;;;;1999.90;999.90;;;16.20;84.70;;;;;;6285599;22;20035;-76
2023/06/05 06:45:06;;;;;;;1999.90;999.90;;;16.30;84.60;;;;;;6286534;22;20004;-76
2023/06/05 06:47:32;;;;;;;1999.90;999.90;;;16.40;84.00;;;;;;6314148;22;20022;-76
2023/06/05 06:49:57;;;;;;;1999.90;999.90;;;16.50;84.60;;;;;;6314808;22;20423;-76
2023/06/05 06:52:23;;;;;;;1999.90;999.90;;;16.60;83.40;;;;;;6313406;22;20022;-76
2023/06/05 06:54:49;;;;;;;1999.90;999.90;;;16.70;82.80;;;;;;6286575;22;20130;-76
2023/06/05 06:57:15;;;;;;;1999.90;999.90;;;16.90;83.30;;;;;;6314399;22;20023;-77
2023/06/05 06:59:41;;;;;;;1999.90;999.90;;;17.10;82.90;;;;;;6314136;22;20067;-77
2023/06/05 07:02:20;;;;;;;1999.90;999.90;;;17.30;82.30;;;;;;6313536;22;20431;-77
2023/06/05 07:04:48;;;;;;;1999.90;999.90;;;17.40;80.80;;;;;;6313516;22;20530;-77
2023/06/05 07:07:15;;;;;;;1999.90;999.90;;;17.60;81.70;;;;;;6314155;22;20003;-76
2023/06/05 07:09:42;;;;;;;1999.90;999.90;;;17.80;81.00;;;;;;6314084;22;20321;-77
2023/06/05 07:12:09;;;;;;;1999.90;999.90;;;17.80;81.50;;;;;;6313444;22;20505;-77
2023/06/05 07:14:36;;;;;;;1999.90;999.90;;;17.70;81.20;;;;;;6313941;22;20089;-77
2023/06/05 07:17:02;;;;;;;1999.90;999.90;;;18.00;83.80;;;;;;6314147;22;20436;-77
2023/06/05 07:19:28;;;;;;;1999.90;999.90;;;18.30;81.10;;;;;;6314111;22;20003;-77
2023/06/05 07:21:56;;;;;;;1999.90;999.90;;;18.50;80.80;;;;;;6313678;22;20451;-77
2023/06/05 07:24:24;;;;;;;1999.90;999.90;;;18.80;80.40;;;;;;6314114;22;20083;-77
2023/06/05 07:26:50;;;;;;;1999.90;999.90;;;19.10;79.40;;;;;;6286240;22;20085;-77
2023/06/05 07:29:15;;;;;;;1999.90;999.90;;;19.50;78.90;;;;;;6314071;22;20007;-77
2023/06/05 07:31:42;;;;;;;1999.90;999.90;;;19.80;76.90;;;;;;6313874;22;20008;-77
2023/06/05 07:34:07;;;;;;;1999.90;999.90;;;20.10;76.60;;;;;;6313897;22;20091;-76
2023/06/05 07:36:33;;;;;;;1999.90;999.90;;;19.90;76.30;;;;;;6313535;22;20094;-76
2023/06/05 07:38:58;;;;;;;1999.90;999.90;;;20.00;75.40;;;;;;6313714;22;20339;-77
2023/06/05 07:41:25;;;;;;;1999.90;999.90;;;20.20;75.10;;;;;;6313639;22;20048;-77
2023/06/05 07:43:51;;;;;;;1999.90;999.90;;;20.30;76.00;;;;;;6313699;22;20086;-77
2023/06/05 07:46:16;;;;;;;1999.90;999.90;;;20.50;75.70;;;;;;6313738;22;20043;-79
2023/06/05 07:48:42;;;;;;;1999.90;999.90;;;20.70;73.50;;;;;;6314771;22;20007;-78
2023/06/05 07:51:08;;;;;;;1999.90;999.90;;;20.90;74.20;;;;;;6289221;22;20075;-76
2023/06/05 07:53:34;;;;;;;1999.90;999.90;;;20.80;73.80;;;;;;6317300;22;20012;-80
2023/06/05 07:55:59;;;;;;;1999.90;999.90;;;20.70;75.00;;;;;;6313912;22;20340;-78
2023/06/05 07:58:27;;;;;;;1999.90;999.90;;;20.90;73.50;;;;;;6314094;22;20432;-79
2023/06/05 08:00:53;;;;;;;1999.90;999.90;;;21.00;74.10;;;;;;6315988;22;20004;-79
2023/06/05 08:03:21;;;;;;;1999.90;999.90;;;21.10;74.60;;;;;;6315180;22;20062;-80
2023/06/05 08:05:47;;;;;;;1999.90;999.90;;;21.50;74.60;;;;;;6314395;22;19984;-80
2023/06/05 08:08:13;;;;;;;1999.90;999.90;;;21.70;72.20;;;;;;6314798;22;20007;-79
2023/06/05 08:10:40;;;;;;;1999.90;999.90;;;21.50;73.10;;;;;;6285859;22;20059;-80
2023/06/05 08:13:06;;;;;;;1999.90;999.90;;;21.70;73.10;;;;;;6314822;22;20007;-79
2023/06/05 08:15:32;;;;;;;1999.90;999.90;;;22.00;71.10;;;;;;6318852;22;20036;-80
2023/06/05 08:17:58;;;;;;;1999.90;999.90;;;22.00;72.10;;;;;;6290318;22;20404;-79
2023/06/05 08:20:23;;;;;;;1999.90;999.90;;;22.20;71.70;;;;;;6316609;22;20004;-79
2023/06/05 08:22:49;;;;;;;1999.90;999.90;;;22.60;70.80;;;;;;6317295;22;20035;-80
2023/06/05 08:25:14;;;;;;;1999.90;999.90;;;22.60;71.70;;;;;;6315875;22;20003;-79
2023/06/05 08:27:40;;;;;;;1999.90;999.90;;;22.70;70.00;;;;;;6316443;22;20008;-81
2023/06/05 08:30:06;;;;;;;1999.90;999.90;;;22.90;69.50;;;;;;6288717;22;20004;-79
2023/06/05 08:32:32;;;;;;;1999.90;999.90;;;23.40;69.20;;;;;;6286620;22;20457;-78
2023/06/05 08:34:58;;;;;;;1999.90;999.90;;;23.70;70.00;;;;;;6315413;22;20008;-79
2023/06/05 08:37:23;;;;;;;1999.90;999.90;;;23.70;67.50;;;;;;6316255;22;20049;-79
2023/06/05 08:39:50;;;;;;;1999.90;999.90;;;23.80;69.90;;;;;;6316282;22;20004;-79
2023/06/05 08:42:18;;;;;;;1999.90;999.90;;;23.90;68.20;;;;;;6315246;22;20007;-79
2023/06/05 08:44:47;;;;;;;1999.90;999.90;;;23.70;67.70;;;;;;6315275;22;20364;-77
2023/06/05 08:47:14;;;;;;;1999.90;999.90;;;23.70;70.80;;;;;;6314850;22;20073;-78
2023/06/05 08:49:41;;;;;;;1999.90;999.90;;;23.60;68.20;;;;;;6315587;22;20455;-78
2023/06/05 08:52:08;;;;;;;1999.90;999.90;;;23.50;71.40;;;;;;6313998;22;20065;-77
2023/06/05 08:54:38;;;;;;;1999.90;999.90;;;23.90;67.60;;;;;;6314362;22;20422;-80
2023/06/05 08:57:07;;;;;;;1999.90;999.90;;;23.70;69.00;;;;;;6315626;22;20008;-75
2023/06/05 08:59:33;;;;;;;1999.90;999.90;;;24.20;67.40;;;;;;6313245;22;20427;-76
2023/06/05 09:02:00;;;;;;;1999.90;999.90;;;24.10;68.20;;;;;;6313605;22;20348;-74
2023/06/05 09:04:30;;;;;;;1999.90;999.90;;;24.40;66.90;;;;;;6314099;22;20022;-75
2023/06/05 09:06:57;;;;;;;1999.90;999.90;;;24.50;67.10;;;;;;6313821;22;20007;-75
2023/06/05 09:09:22;;;;;;;1999.90;999.90;;;24.70;66.10;;;;;;6286537;22;20011;-75
2023/06/05 09:12:07;;;;;;;1999.90;999.90;;;24.80;65.20;;;;;;6338434;22;20317;-78
2023/06/05 09:14:33;;;;;;;1999.90;999.90;;;24.70;64.20;;;;;;6314153;22;20095;-75
2023/06/05 09:17:00;;;;;;;1999.90;999.90;;;24.60;67.70;;;;;;6314237;22;20031;-74
2023/06/05 09:19:36;;;;;;;1999.90;999.90;;;24.70;64.90;;;;;;6314274;22;20000;-73
2023/06/05 09:22:01;;;;;;;1999.90;999.90;;;25.00;63.90;;;;;;6313695;22;20451;-74
2023/06/05 09:24:29;;;;;;;1999.90;999.90;;;25.20;65.60;;;;;;6314105;22;20019;-72
2023/06/05 09:27:11;;;;;;;1999.90;999.90;;;25.50;65.00;;;;;;6313657;22;20344;-73
2023/06/05 09:29:38;;;;;;;1999.90;999.90;;;25.70;66.20;;;;;;6314117;22;20003;-73
2023/06/05 09:32:09;;;;;;;1999.90;999.90;;;25.90;66.00;;;;;;6313104;22;20000;-73
2023/06/05 09:34:39;;;;;;;1999.90;999.90;;;25.60;66.80;;;;;;6314075;22;20011;-73
2023/06/05 09:37:10;;;;;;;1999.90;999.90;;;25.40;64.60;;;;;;6314313;22;20004;-72
2023/06/05 09:39:37;;;;;;;1999.90;999.90;;;25.50;65.50;;;;;;6314254;22;20019;-73
2023/06/05 09:42:03;;;;;;;1999.90;999.90;;;25.60;63.60;;;;;;6313347;22;20397;-73
2023/06/05 09:44:30;;;;;;;1999.90;999.90;;;25.80;64.80;;;;;;6313930;22;20012;-73
2023/06/05 09:47:08;;;;;;;1999.90;999.90;;;26.00;63.60;;;;;;6314131;22;20004;-72
2023/06/05 09:49:42;;;;;;;1999.90;999.90;;;25.70;63.90;;;;;;6314120;22;20015;-73
2023/06/05 09:52:09;;;;;;;1999.90;999.90;;;25.80;60.90;;;;;;6313406;22;20011;-73
2023/06/05 09:54:39;;;;;;;1999.90;999.90;;;26.00;64.60;;;;;;6314106;22;20018;-73
2023/06/05 09:57:09;;;;;;;1999.90;999.90;;;26.40;65.00;;;;;;6313765;22;19999;-72
2023/06/05 09:59:45;;;;;;;1999.90;999.90;;;26.30;65.40;;;;;;6314013;22;20042;-72
2023/06/05 10:02:16;;;;;;;1999.90;999.90;;;26.30;62.00;;;;;;6313619;22;20000;-72
2023/06/05 10:05:00;;;;;;;1999.90;999.90;;;26.50;62.80;;;;;;6314160;22;20087;-72
2023/06/05 10:07:26;;;;;;;1999.90;999.90;;;26.20;60.00;;;;;;6313959;22;20003;-73
2023/06/05 10:09:53;;;;;;;1999.90;999.90;;;26.10;59.30;;;;;;6314212;22;20014;-72
2023/06/05 10:12:20;;;;;;;1999.90;999.90;;;26.20;61.90;;;;;;6313246;22;19999;-73
2023/06/05 10:14:47;;;;;;;1999.90;999.90;;;26.50;59.70;;;;;;6314108;22;20536;-73
2023/06/05 10:17:13;;;;;;;1999.90;999.90;;;26.30;58.50;;;;;;6316521;22;20030;-79
2023/06/05 10:19:44;;;;;;;1999.90;999.90;;;26.50;58.40;;;;;;6315255;22;20008;-73
2023/06/05 10:22:11;;;;;;;1999.90;999.90;;;26.90;59.30;;;;;;6314534;22;19999;-77
2023/06/05 10:24:56;;;;;;;1999.90;999.90;;;27.20;58.00;;;;;;6314563;22;20108;-77
2023/06/05 10:27:25;;;;;;;1999.90;999.90;;;27.10;56.00;;;;;;6286527;22;20078;-74
2023/06/05 10:30:27;;;;;;;1999.90;999.90;;;27.00;55.40;;;;;;6314159;22;20033;-74
2023/06/05 10:33:12;;;;;;;1999.90;999.90;;;27.40;55.70;;;;;;6286480;22;20011;-77
2023/06/05 10:35:55;;;;;;;1999.90;999.90;;;27.50;51.10;;;;;;6315003;22;20467;-72
2023/06/05 10:38:23;;;;;;;1999.90;999.90;;;27.30;53.20;;;;;;6314079;22;20007;-73
2023/06/05 10:40:55;;;;;;;1999.90;999.90;;;27.10;53.10;;;;;;6313818;22;20454;-74
2023/06/05 10:43:35;;;;;;;1999.90;999.90;;;27.10;52.20;;;;;;6313516;22;20039;-77
2023/06/05 10:46:22;;;;;;;1999.90;999.90;;;27.20;50.10;;;;;;6314059;22;20422;-74
2023/06/05 10:49:09;;;;;;;1999.90;999.90;;;26.90;55.20;;;;;;6313701;22;20011;-74
2023/06/05 10:51:42;;;;;;;1999.90;999.90;;;27.30;54.50;;;;;;6313425;22;20004;-76
2023/06/05 10:54:16;;;;;;;1999.90;999.90;;;27.50;54.40;;;;;;6313769;22;20010;-78
2023/06/05 10:56:55;;;;;;;1999.90;999.90;;;27.70;53.30;;;;;;6313723;22;20010;-73
2023/06/05 10:59:34;;;;;;;1999.90;999.90;;;27.30;55.30;;;;;;6314156;22;20078;-76
2023/06/05 11:02:06;;;;;;;1999.90;999.90;;;27.60;55.10;;;;;;6313080;22;20003;-70
2023/06/05 11:04:51;;;;;;;1999.90;999.90;;;28.00;52.50;;;;;;6313585;22;20060;-71
2023/06/05 11:07:21;;;;;;;1999.90;999.90;;;27.70;54.90;;;;;;6296477;22;20011;-70
2023/06/05 11:10:02;;;;;;;1999.90;999.90;;;27.60;54.00;;;;;;6313054;22;20384;-70
2023/06/05 11:12:39;;;;;;;1999.90;999.90;;;28.00;54.30;;;;;;6312706;22;20000;-70
2023/06/05 11:15:16;;;;;;;1999.90;999.90;;;28.30;52.80;;;;;;6313672;22;20008;-71
2023/06/05 11:17:44;;;;;;;1999.90;999.90;;;28.10;51.50;;;;;;6313382;22;20007;-70
2023/06/05 11:20:26;;;;;;;1999.90;999.90;;;28.10;54.10;;;;;;6285394;22;20390;-70
2023/06/05 11:22:57;;;;;;;1999.90;999.90;;;28.20;53.50;;;;;;6313202;22;20000;-70
2023/06/05 11:25:32;;;;;;;1999.90;999.90;;;28.00;54.50;;;;;;6312966;22;20003;-70
2023/06/05 11:28:06;;;;;;;1999.90;999.90;;;28.10;56.70;;;;;;6313598;22;20004;-71
2023/06/05 11:30:38;;;;;;;1999.90;999.90;;;28.20;53.80;;;;;;6312079;22;20004;-70
2023/06/05 11:33:23;;;;;;;1999.90;999.90;;;28.30;52.20;;;;;;6312441;22;20012;-71
2023/06/05 11:35:50;;;;;;;1999.90;999.90;;;28.70;54.30;;;;;;6313261;22;20054;-71
2023/06/05 11:38:21;;;;;;;1999.90;999.90;;;28.90;53.30;;;;;;6312902;22;20089;-71
2023/06/05 11:40:47;;;;;;;1999.90;999.90;;;29.20;53.70;;;;;;6312854;22;20003;-72
2023/06/05 11:43:15;;;;;;;1999.90;999.90;;;29.00;52.70;;;;;;6312466;22;20012;-71
2023/06/05 11:45:48;;;;;;;1999.90;999.90;;;28.00;52.70;;;;;;6285766;22;20012;-71
2023/06/05 11:48:14;;;;;;;1999.90;999.90;;;27.50;52.40;;;;;;6311992;22;20016;-71
2023/06/05 11:50:53;;;;;;;1999.90;999.90;;;26.80;53.90;;;;;;6284493;22;20498;-71
2023/06/05 11:53:20;;;;;;;1999.90;999.90;;;26.80;55.90;;;;;;6313713;22;20107;-70
2023/06/05 11:58:27;;;;;;;1999.90;999.90;;;28.00;55.50;;;;;;6314182;22;20018;-70
2023/06/05 12:01:05;;;;;;;1999.90;999.90;;;28.70;52.00;;;;;;6312625;22;20050;-71
2023/06/05 12:03:32;;;;;;;1999.90;999.90;;;28.60;51.10;;;;;;6286351;22;20011;-71
2023/06/05 12:05:58;;;;;;;1999.90;999.90;;;28.50;50.30;;;;;;6314204;22;20003;-70